Time;durP1;ratioP1;P1;durP2;ratioP2;P2;SDS_P1;SDS_P2;PMS_P1;PMS_P2;Temp;Humidity;BMP_temperature;BMP_pressure;BME280_temperature;BME280_humidity;BME280_pressure;Samples;Min_cycle;Max_cycle;Signal;HPM_P1;HPM_P2
2022/03/17 00:00:15;;;;;;;27.48;4.03;;;;;;;;;;6210142;23;20036;-81
2022/03/17 00:02:41;;;;;;;17.23;3.58;;;;;;;;;;6210506;23;20000;-81
2022/03/17 00:05:10;;;;;;;13.68;3.72;;;;;;;;;;6210446;23;20000;-81
2022/03/17 00:07:37;;;;;;;20.77;4.40;;;;;;;;;;6211209;23;20070;-81
2022/03/17 00:10:04;;;;;;;20.83;4.85;;;;;;;;;;6211707;23;20007;-81
2022/03/17 00:12:30;;;;;;;28.63;5.17;;;;;;;;;;6210543;23;20030;-81
2022/03/17 00:14:56;;;;;;;21.60;4.70;;;;;;;;;;6210473;23;20012;-82
2022/03/17 00:17:23;;;;;;;23.42;4.18;;;;;;;;;;6210404;23;20004;-81
2022/03/17 00:19:49;;;;;;;17.25;3.90;;;;;;;;;;6210633;23;20012;-81
2022/03/17 00:22:16;;;;;;;26.05;4.03;;;;;;;;;;6210490;23;19997;-81
2022/03/17 00:24:43;;;;;;;17.67;3.60;;;;;;;;;;6210515;23;20075;-81
2022/03/17 00:27:09;;;;;;;23.65;4.32;;;;;;;;;;6210539;23;19997;-81
2022/03/17 00:29:36;;;;;;;22.35;3.72;;;;;;;;;;6211491;23;20047;-81
2022/03/17 00:32:03;;;;;;;14.65;3.28;;;;;;;;;;6211308;23;20000;-81
2022/03/17 00:34:29;;;;;;;16.60;3.10;;;;;;;;;;6210495;23;20449;-81
2022/03/17 00:36:55;;;;;;;18.33;3.08;;;;;;;;;;6210504;23;20066;-82
2022/03/17 00:39:21;;;;;;;12.88;3.33;;;;;;;;;;6210193;23;20000;-81
2022/03/17 00:41:48;;;;;;;12.57;2.72;;;;;;;;;;6210278;23;20406;-81
2022/03/17 00:44:14;;;;;;;40.85;3.10;;;;;;;;;;6183591;23;20000;-81
2022/03/17 00:46:41;;;;;;;16.13;2.83;;;;;;;;;;6210007;23;20015;-80
2022/03/17 00:49:07;;;;;;;21.92;4.05;;;;;;;;;;6211445;23;20000;-81
2022/03/17 00:51:34;;;;;;;18.30;4.10;;;;;;;;;;6211469;23;19996;-81
2022/03/17 00:54:00;;;;;;;19.67;3.55;;;;;;;;;;6210187;23;20031;-81
2022/03/17 00:56:26;;;;;;;14.15;2.55;;;;;;;;;;6210168;23;20000;-81
2022/03/17 00:58:52;;;;;;;14.88;2.88;;;;;;;;;;6209966;23;20004;-82
2022/03/17 01:01:18;;;;;;;18.38;3.17;;;;;;;;;;6210034;23;20028;-81
2022/03/17 01:03:45;;;;;;;16.83;2.70;;;;;;;;;;6210367;23;19997;-84
2022/03/17 01:06:11;;;;;;;16.83;3.55;;;;;;;;;;6183612;23;20437;-82
2022/03/17 01:08:38;;;;;;;15.05;2.95;;;;;;;;;;6184552;23;20453;-81
2022/03/17 01:11:04;;;;;;;16.92;2.97;;;;;;;;;;6210963;23;20008;-81
2022/03/17 01:13:31;;;;;;;24.92;2.95;;;;;;;;;;6210042;23;20012;-85
2022/03/17 01:15:57;;;;;;;16.92;3.28;;;;;;;;;;6183471;23;20083;-84
2022/03/17 01:18:24;;;;;;;18.52;3.40;;;;;;;;;;6210294;23;20388;-85
2022/03/17 01:20:50;;;;;;;21.98;2.72;;;;;;;;;;6210091;23;20432;-81
2022/03/17 01:23:16;;;;;;;18.83;3.17;;;;;;;;;;6183441;23;20341;-81
2022/03/17 01:25:43;;;;;;;16.48;3.10;;;;;;;;;;6183018;23;20015;-82
2022/03/17 01:28:09;;;;;;;18.08;2.97;;;;;;;;;;6211080;23;20116;-80
2022/03/17 01:30:35;;;;;;;18.75;3.17;;;;;;;;;;6209941;23;20001;-82
2022/03/17 01:33:02;;;;;;;14.77;2.80;;;;;;;;;;6210158;23;20008;-83
2022/03/17 01:35:28;;;;;;;16.52;2.92;;;;;;;;;;6209961;23;20027;-83
2022/03/17 01:37:54;;;;;;;20.55;3.00;;;;;;;;;;6209686;23;20003;-83
2022/03/17 01:40:20;;;;;;;10.13;2.78;;;;;;;;;;6183214;23;20020;-82
2022/03/17 01:42:46;;;;;;;18.80;3.25;;;;;;;;;;6209683;23;19996;-84
2022/03/17 01:45:12;;;;;;;19.67;3.08;;;;;;;;;;6209920;23;20451;-82
2022/03/17 01:47:39;;;;;;;23.33;3.15;;;;;;;;;;6210827;23;20001;-82
2022/03/17 01:50:07;;;;;;;14.95;3.10;;;;;;;;;;6183359;23;20098;-81
2022/03/17 01:52:34;;;;;;;14.75;2.88;;;;;;;;;;6209877;23;20004;-82
2022/03/17 01:55:00;;;;;;;15.88;3.35;;;;;;;;;;6183493;23;20440;-81
2022/03/17 01:57:26;;;;;;;23.20;3.85;;;;;;;;;;6209695;23;19997;-83
2022/03/17 01:59:53;;;;;;;15.80;3.42;;;;;;;;;;6209963;23;20095;-81
2022/03/17 02:02:20;;;;;;;16.35;3.22;;;;;;;;;;6209983;23;20392;-82
2022/03/17 02:04:47;;;;;;;23.00;3.78;;;;;;;;;;6209722;23;20005;-81
2022/03/17 02:07:14;;;;;;;31.52;3.35;;;;;;;;;;6183191;23;20009;-81
2022/03/17 02:09:40;;;;;;;13.18;2.83;;;;;;;;;;6210884;23;20197;-81
2022/03/17 02:14:53;;;;;;;12.60;2.80;;;;;;;;;;6209834;23;20141;-81
2022/03/17 02:17:20;;;;;;;15.57;3.13;;;;;;;;;;6209803;23;20000;-81
2022/03/17 02:19:46;;;;;;;15.75;3.58;;;;;;;;;;6209637;23;20263;-81
2022/03/17 02:22:15;;;;;;;19.60;3.90;;;;;;;;;;6210785;23;19997;-81
2022/03/17 02:27:28;;;;;;;17.95;3.75;;;;;;;;;;6211551;23;20016;-83
2022/03/17 02:29:55;;;;;;;23.00;3.78;;;;;;;;;;6211604;23;19997;-82
2022/03/17 02:32:21;;;;;;;15.85;2.85;;;;;;;;;;6211444;23;20005;-81
2022/03/17 02:34:47;;;;;;;21.98;3.90;;;;;;;;;;6211300;23;20004;-82
2022/03/17 02:37:15;;;;;;;20.00;3.47;;;;;;;;;;6212249;23;20005;-82
2022/03/17 02:39:41;;;;;;;16.98;3.88;;;;;;;;;;6212514;23;20048;-81
2022/03/17 02:42:08;;;;;;;21.63;3.35;;;;;;;;;;6211349;23;20004;-81
2022/03/17 02:44:34;;;;;;;19.55;3.33;;;;;;;;;;6211472;23;20757;-82
2022/03/17 02:47:00;;;;;;;15.52;3.20;;;;;;;;;;6211301;23;20008;-81
2022/03/17 02:49:26;;;;;;;15.63;3.33;;;;;;;;;;6211215;23;20000;-81
2022/03/17 02:51:54;;;;;;;16.58;3.30;;;;;;;;;;6184780;23;20005;-81
2022/03/17 02:54:20;;;;;;;14.23;3.72;;;;;;;;;;6211358;23;20062;-81
2022/03/17 02:56:46;;;;;;;20.35;3.63;;;;;;;;;;6211379;23;20425;-82
2022/03/17 02:59:12;;;;;;;23.75;3.78;;;;;;;;;;6212283;23;20460;-81
2022/03/17 03:01:38;;;;;;;18.50;3.10;;;;;;;;;;6211102;23;20007;-81
2022/03/17 03:04:04;;;;;;;10.63;2.75;;;;;;;;;;6211072;23;20004;-81
2022/03/17 03:06:30;;;;;;;16.58;3.08;;;;;;;;;;6211170;23;20001;-81
2022/03/17 03:08:56;;;;;;;17.55;2.65;;;;;;;;;;6211364;23;20001;-83
2022/03/17 03:11:22;;;;;;;22.95;3.58;;;;;;;;;;6211144;23;20001;-81
2022/03/17 03:13:48;;;;;;;17.13;3.35;;;;;;;;;;6184414;23;20030;-82
2022/03/17 03:16:14;;;;;;;16.23;3.20;;;;;;;;;;6212163;23;20383;-82
2022/03/17 03:18:40;;;;;;;25.42;3.55;;;;;;;;;;6184258;23;20507;-82
2022/03/17 03:21:07;;;;;;;16.30;3.15;;;;;;;;;;6184513;23;20091;-82
2022/03/17 03:23:33;;;;;;;16.25;3.35;;;;;;;;;;6211115;23;20337;-82
2022/03/17 03:26:00;;;;;;;19.10;2.88;;;;;;;;;;6184423;23;20012;-83
2022/03/17 03:28:26;;;;;;;19.17;3.50;;;;;;;;;;6184433;23;20000;-82
2022/03/17 03:30:54;;;;;;;18.13;3.63;;;;;;;;;;6210948;23;20123;-82
2022/03/17 03:33:20;;;;;;;17.48;3.55;;;;;;;;;;6211057;23;20000;-83
2022/03/17 03:38:31;;;;;;;14.05;3.45;;;;;;;;;;6210848;23;20349;-82
2022/03/17 03:40:59;;;;;;;22.75;3.50;;;;;;;;;;6210627;23;20015;-82
2022/03/17 03:43:25;;;;;;;10.57;2.55;;;;;;;;;;6184277;23;20008;-82
2022/03/17 03:45:52;;;;;;;20.50;2.95;;;;;;;;;;6184079;23;20456;-82
2022/03/17 03:48:18;;;;;;;13.73;3.17;;;;;;;;;;6211561;23;20055;-83
2022/03/17 03:50:46;;;;;;;14.38;2.90;;;;;;;;;;6211443;23;20062;-83
2022/03/17 03:53:12;;;;;;;19.67;3.07;;;;;;;;;;6210706;23;20001;-84
2022/03/17 03:55:38;;;;;;;21.42;3.47;;;;;;;;;;6209916;23;20316;-83
2022/03/17 03:58:04;;;;;;;26.25;3.28;;;;;;;;;;6210715;23;20027;-86
2022/03/17 04:02:57;;;;;;;20.25;3.45;;;;;;;;;;6210745;23;20059;-83
2022/03/17 04:05:28;;;;;;;11.23;2.40;;;;;;;;;;6210611;23;20005;-83
2022/03/17 04:07:56;;;;;;;13.77;2.88;;;;;;;;;;6210029;23;20011;-84
2022/03/17 04:10:23;;;;;;;18.05;3.25;;;;;;;;;;6210446;23;20507;-83
2022/03/17 04:12:49;;;;;;;15.65;3.00;;;;;;;;;;6211360;23;20020;-82
2022/03/17 04:15:15;;;;;;;13.80;3.17;;;;;;;;;;6184974;23;20529;-84
2022/03/17 04:17:41;;;;;;;13.65;3.42;;;;;;;;;;6210572;23;20066;-84
2022/03/17 04:20:09;;;;;;;16.65;2.85;;;;;;;;;;6183763;23;20016;-83
2022/03/17 04:22:35;;;;;;;16.05;2.88;;;;;;;;;;6210610;23;20027;-83
2022/03/17 04:25:01;;;;;;;20.05;3.72;;;;;;;;;;6210290;23;20131;-83
2022/03/17 04:27:27;;;;;;;15.27;3.10;;;;;;;;;;6210160;23;20008;-83
2022/03/17 04:29:54;;;;;;;17.40;3.38;;;;;;;;;;6210611;23;20027;-83
2022/03/17 04:32:20;;;;;;;17.35;2.88;;;;;;;;;;6211171;23;20015;-83
2022/03/17 04:34:47;;;;;;;14.40;2.88;;;;;;;;;;6183908;23;20000;-85
2022/03/17 04:37:14;;;;;;;18.63;3.42;;;;;;;;;;6183343;23;20011;-82
2022/03/17 04:39:40;;;;;;;15.05;3.10;;;;;;;;;;6210018;23;20337;-83
2022/03/17 04:42:06;;;;;;;27.83;3.55;;;;;;;;;;6209851;23;20000;-82
2022/03/17 04:44:32;;;;;;;13.70;3.30;;;;;;;;;;6210227;23;20318;-86
2022/03/17 04:47:08;;;;;;;21.42;3.47;;;;;;;;;;6211689;23;20437;-92
2022/03/17 04:49:40;;;;;;;19.20;3.05;;;;;;;;;;6185494;23;20433;-92
2022/03/17 05:04:43;;;;;;;14.00;3.78;;;;;;;;;;6034185;23;20027;-91
2022/03/17 05:10:54;;;;;;;;;;;;;;;;;;;;;
2022/03/17 05:22:32;;;;;;;14.25;2.50;;;;;;;;;;5879622;24;20040;-92
2022/03/17 05:25:12;;;;;;;10.43;2.83;;;;;;;;;;6044260;23;20067;-92
2022/03/17 05:28:14;;;;;;;;;;;;;;;;;;;;;
2022/03/17 05:33:49;;;;;;;10.55;3.15;;;;;;;;;;6033508;23;20417;-89
2022/03/17 05:36:25;;;;;;;;;;;;;;;;;;;;;
2022/03/17 05:38:52;;;;;;;17.98;2.88;;;;;;;;;;6072614;23;19913;-88
2022/03/17 05:41:18;;;;;;;20.77;3.15;;;;;;;;;;6151047;23;20005;-90
2022/03/17 05:43:44;;;;;;;11.18;2.53;;;;;;;;;;6207303;23;20053;-89
2022/03/17 05:46:10;;;;;;;7.00;2.40;;;;;;;;;;6186836;23;20009;-90
2022/03/17 05:48:38;;;;;;;8.40;2.53;;;;;;;;;;6186153;23;20036;-89
2022/03/17 05:51:04;;;;;;;11.85;2.45;;;;;;;;;;6185808;23;20457;-91
2022/03/17 05:53:31;;;;;;;13.70;3.80;;;;;;;;;;6185587;23;20020;-89
2022/03/17 05:55:57;;;;;;;12.13;2.63;;;;;;;;;;6185377;23;20000;-90
2022/03/17 05:58:23;;;;;;;11.65;2.55;;;;;;;;;;6213833;23;20058;-89
2022/03/17 06:00:49;;;;;;;16.05;2.65;;;;;;;;;;6187263;23;20070;-91
2022/03/17 06:03:24;;;;;;;11.80;3.05;;;;;;;;;;6187289;23;20004;-91
2022/03/17 06:05:53;;;;;;;21.88;3.45;;;;;;;;;;6188136;23;20004;-90
2022/03/17 06:08:19;;;;;;;10.25;2.50;;;;;;;;;;6187497;23;20067;-91
2022/03/17 06:10:46;;;;;;;15.20;3.33;;;;;;;;;;6187242;23;20132;-90
2022/03/17 06:13:12;;;;;;;13.48;2.72;;;;;;;;;;6187135;23;20441;-90
2022/03/17 06:15:38;;;;;;;10.20;2.70;;;;;;;;;;6187240;23;20011;-89
2022/03/17 06:18:05;;;;;;;9.20;2.58;;;;;;;;;;6187472;23;20070;-90
2022/03/17 06:20:33;;;;;;;14.70;2.78;;;;;;;;;;6187327;23;20023;-90
2022/03/17 06:23:00;;;;;;;8.68;2.30;;;;;;;;;;6186746;23;20012;-90
2022/03/17 06:25:28;;;;;;;16.42;2.83;;;;;;;;;;6187491;23;20015;-90
2022/03/17 06:27:54;;;;;;;10.33;2.40;;;;;;;;;;6187922;23;20001;-91
2022/03/17 06:30:24;;;;;;;15.95;2.67;;;;;;;;;;6187143;23;20015;-90
2022/03/17 06:32:51;;;;;;;11.73;2.78;;;;;;;;;;6187262;23;20330;-90
2022/03/17 06:35:18;;;;;;;14.52;3.25;;;;;;;;;;6187451;23;20008;-90
2022/03/17 06:37:45;;;;;;;13.25;3.05;;;;;;;;;;6187415;23;20054;-89
2022/03/17 06:40:12;;;;;;;13.45;2.80;;;;;;;;;;6187216;23;20092;-90
2022/03/17 06:42:38;;;;;;;17.45;2.83;;;;;;;;;;6187245;23;20092;-89
2022/03/17 06:45:04;;;;;;;12.27;2.80;;;;;;;;;;6187131;23;20004;-90
2022/03/17 06:47:31;;;;;;;11.45;2.72;;;;;;;;;;6187418;23;20000;-90
2022/03/17 06:49:57;;;;;;;10.55;2.92;;;;;;;;;;6188113;23;20004;-91
2022/03/17 06:52:23;;;;;;;19.40;2.95;;;;;;;;;;6188098;23;20004;-90
2022/03/17 06:54:50;;;;;;;15.90;3.00;;;;;;;;;;6187052;23;20449;-90
2022/03/17 06:57:20;;;;;;;9.30;2.90;;;;;;;;;;6187203;23;20004;-90
2022/03/17 06:59:47;;;;;;;15.32;2.72;;;;;;;;;;6186902;23;20118;-90
2022/03/17 07:02:13;;;;;;;13.63;3.40;;;;;;;;;;6187334;23;20012;-90
2022/03/17 07:04:40;;;;;;;18.35;3.25;;;;;;;;;;6187241;23;20088;-90
2022/03/17 07:07:06;;;;;;;15.20;3.00;;;;;;;;;;6186928;23;20012;-91
2022/03/17 07:09:32;;;;;;;15.02;2.40;;;;;;;;;;6187033;23;20004;-91
2022/03/17 07:12:01;;;;;;;10.77;2.40;;;;;;;;;;6187654;23;20001;-91
2022/03/17 07:14:27;;;;;;;;;;;;;;;;;;6188624;23;20475;-90
2022/03/17 07:16:53;;;;;;;12.98;3.10;;;;;;;;;;6187302;23;19900;-90
2022/03/17 07:19:19;;;;;;;17.67;3.92;;;;;;;;;;6187175;23;20395;-92
2022/03/17 07:21:45;;;;;;;10.88;2.80;;;;;;;;;;6186975;23;20060;-91
2022/03/17 07:24:11;;;;;;;11.38;2.55;;;;;;;;;;6186880;23;20013;-90
2022/03/17 07:26:40;;;;;;;18.17;2.65;;;;;;;;;;6187091;23;20329;-92
2022/03/17 07:29:06;;;;;;;10.88;2.85;;;;;;;;;;6187114;23;20349;-90
2022/03/17 07:31:32;;;;;;;12.63;3.05;;;;;;;;;;6186963;23;20008;-89
2022/03/17 07:33:59;;;;;;;13.00;3.05;;;;;;;;;;6187660;23;20076;-90
2022/03/17 07:36:26;;;;;;;10.82;3.25;;;;;;;;;;6187770;23;20414;-92
2022/03/17 07:38:54;;;;;;;10.95;2.63;;;;;;;;;;6187045;23;20088;-90
2022/03/17 07:41:21;;;;;;;13.80;3.22;;;;;;;;;;6186636;23;20012;-91
2022/03/17 07:43:47;;;;;;;15.88;2.47;;;;;;;;;;6187053;23;20322;-91
2022/03/17 07:46:14;;;;;;;10.43;2.90;;;;;;;;;;6186598;23;20004;-91
2022/03/17 07:48:41;;;;;;;13.60;2.80;;;;;;;;;;6186737;23;20009;-91
2022/03/17 07:51:08;;;;;;;15.02;2.78;;;;;;;;;;6186455;23;20004;-91
2022/03/17 07:53:38;;;;;;;15.18;3.33;;;;;;;;;;6186484;23;20119;-91
2022/03/17 07:56:04;;;;;;;17.77;2.97;;;;;;;;;;6186614;23;20009;-89
2022/03/17 07:58:32;;;;;;;14.43;2.60;;;;;;;;;;6187565;23;20004;-89
2022/03/17 08:01:00;;;;;;;19.15;2.80;;;;;;;;;;6187529;23;20503;-90
2022/03/17 08:03:27;;;;;;;16.45;2.80;;;;;;;;;;6187405;23;20023;-90
2022/03/17 08:05:53;;;;;;;12.90;2.78;;;;;;;;;;6186770;23;20013;-91
2022/03/17 08:08:20;;;;;;;15.45;3.05;;;;;;;;;;6186369;23;20441;-91
2022/03/17 08:10:46;;;;;;;15.15;2.60;;;;;;;;;;6186709;23;20000;-90
2022/03/17 08:13:13;;;;;;;11.77;3.03;;;;;;;;;;6186566;23;20005;-90
2022/03/17 08:15:39;;;;;;;15.55;2.60;;;;;;;;;;6186608;23;20005;-90
2022/03/17 08:18:06;;;;;;;13.40;2.75;;;;;;;;;;6186661;23;19996;-89
2022/03/17 08:20:33;;;;;;;13.80;2.72;;;;;;;;;;6204538;23;20016;-90
2022/03/17 08:22:59;;;;;;;12.40;2.55;;;;;;;;;;6205490;23;20001;-89
2022/03/17 08:25:25;;;;;;;12.52;2.70;;;;;;;;;;6231696;23;20005;-90
2022/03/17 08:27:51;;;;;;;14.40;2.53;;;;;;;;;;6186998;23;20095;-90
2022/03/17 08:30:17;;;;;;;11.70;2.33;;;;;;;;;;6213142;23;20008;-89
2022/03/17 08:32:43;;;;;;;17.02;3.33;;;;;;;;;;6186656;23;20398;-90
2022/03/17 08:35:14;;;;;;;13.15;2.13;;;;;;;;;;6186275;23;20005;-91
2022/03/17 08:37:43;;;;;;;18.42;2.80;;;;;;;;;;6186240;23;20099;-91
2022/03/17 08:40:10;;;;;;;12.25;2.38;;;;;;;;;;6186101;23;20012;-88
2022/03/17 08:42:36;;;;;;;12.23;2.60;;;;;;;;;;6185883;23;20131;-88
2022/03/17 08:49:18;;;;;;;12.77;2.53;;;;;;;;;;6185872;23;20020;-89
2022/03/17 08:50:39;;;;;;;13.38;2.33;;;;;;;;;;6212608;23;20031;-90
2022/03/17 08:53:05;;;;;;;13.00;2.53;;;;;;;;;;6186980;23;20016;-89
2022/03/17 08:55:31;;;;;;;12.68;2.97;;;;;;;;;;6187275;23;20008;-92
2022/03/17 08:57:57;;;;;;;12.52;2.42;;;;;;;;;;6186179;23;20134;-90
2022/03/17 09:00:24;;;;;;;13.73;2.28;;;;;;;;;;6185846;23;20426;-90
2022/03/17 09:02:52;;;;;;;10.85;2.20;;;;;;;;;;6186442;23;20083;-92
2022/03/17 09:05:18;;;;;;;10.30;2.45;;;;;;;;;;6186120;23;20091;-89
2022/03/17 09:07:44;;;;;;;18.88;2.25;;;;;;;;;;6186122;23;20020;-91
2022/03/17 09:10:10;;;;;;;8.88;2.10;;;;;;;;;;6186225;23;20342;-92
2022/03/17 09:12:38;;;;;;;14.93;2.17;;;;;;;;;;6186177;23;20007;-90
2022/03/17 09:15:05;;;;;;;8.90;2.05;;;;;;;;;;6186358;23;20011;-91
2022/03/17 09:17:32;;;;;;;12.98;2.40;;;;;;;;;;6187169;23;20009;-90
2022/03/17 09:19:58;;;;;;;12.20;1.92;;;;;;;;;;6186187;23;20009;-91
2022/03/17 09:22:24;;;;;;;10.68;1.90;;;;;;;;;;6186055;23;20001;-91
2022/03/17 09:24:50;;;;;;;13.77;2.17;;;;;;;;;;6186119;23;20437;-90
2022/03/17 09:27:16;;;;;;;16.20;2.40;;;;;;;;;;6185937;23;20015;-91
2022/03/17 09:29:45;;;;;;;13.48;2.30;;;;;;;;;;6185619;23;20005;-90
2022/03/17 09:32:14;;;;;;;9.93;3.00;;;;;;;;;;6187234;23;20087;-91
2022/03/17 09:34:40;;;;;;;;;;;;;;;;;;6188768;23;20084;-92
2022/03/17 09:37:06;;;;;;;12.68;2.30;;;;;;;;;;6188708;23;19899;-92
2022/03/17 09:42:27;;;;;;;10.75;2.33;;;;;;;;;;6128972;23;20005;-91
2022/03/17 09:44:54;;;;;;;9.32;1.85;;;;;;;;;;6187589;23;20055;-91
2022/03/17 09:47:22;;;;;;;7.57;1.63;;;;;;;;;;6188253;23;20004;-90
2022/03/17 09:49:53;;;;;;;7.67;1.80;;;;;;;;;;6188030;23;20028;-91
2022/03/17 09:52:20;;;;;;;8.10;2.00;;;;;;;;;;6187902;23;20743;-90
2022/03/17 09:54:50;;;;;;;7.85;1.75;;;;;;;;;;6188161;23;20460;-91
2022/03/17 09:57:17;;;;;;;14.55;2.22;;;;;;;;;;6188008;23;20050;-91
2022/03/17 09:59:53;;;;;;;8.63;2.03;;;;;;;;;;6187341;23;20011;-91
2022/03/17 10:02:19;;;;;;;6.68;1.70;;;;;;;;;;6187942;23;20040;-90
2022/03/17 10:04:47;;;;;;;3.63;1.63;;;;;;;;;;6214275;23;20426;-91
2022/03/17 10:07:18;;;;;;;6.07;1.67;;;;;;;;;;6187560;23;20051;-92
2022/03/17 10:09:47;;;;;;;2.60;1.33;;;;;;;;;;6187856;23;20009;-91
2022/03/17 10:12:14;;;;;;;9.13;1.90;;;;;;;;;;6188528;23;20001;-91
2022/03/17 10:14:49;;;;;;;8.10;1.63;;;;;;;;;;6187646;23;20004;-91
2022/03/17 10:17:34;;;;;;;5.35;2.03;;;;;;;;;;6187769;23;20012;-93
2022/03/17 10:20:22;;;;;;;4.32;1.35;;;;;;;;;;6187974;23;20013;-91
2022/03/17 10:22:50;;;;;;;9.38;1.58;;;;;;;;;;6170266;23;20005;-91
2022/03/17 10:25:20;;;;;;;8.55;1.95;;;;;;;;;;6187780;23;20049;-92
2022/03/17 10:27:50;;;;;;;4.47;1.50;;;;;;;;;;6187411;23;20024;-93
2022/03/17 10:30:25;;;;;;;6.28;1.50;;;;;;;;;;6187115;23;20008;-91
2022/03/17 10:32:55;;;;;;;6.60;1.85;;;;;;;;;;6187639;23;20015;-91
2022/03/17 10:35:45;;;;;;;;;;;;;;;;;;;;;
2022/03/17 10:38:17;;;;;;;12.25;2.05;;;;;;;;;;6214119;23;20068;-90
2022/03/17 10:40:44;;;;;;;4.75;1.80;;;;;;;;;;6213986;23;20008;-91
2022/03/17 10:43:29;;;;;;;7.68;1.98;;;;;;;;;;6186948;23;20023;-89
2022/03/17 10:46:05;;;;;;;11.70;2.17;;;;;;;;;;6187382;23;20054;-91
2022/03/17 10:48:31;;;;;;;4.00;1.50;;;;;;;;;;6187075;23;20484;-89
2022/03/17 10:50:58;;;;;;;5.63;1.40;;;;;;;;;;6187239;23;20036;-91
2022/03/17 10:53:27;;;;;;;5.65;1.40;;;;;;;;;;6188124;23;20087;-91
2022/03/17 10:56:04;;;;;;;6.45;1.83;;;;;;;;;;6187226;23;20036;-90
2022/03/17 11:04:47;;;;;;;5.03;1.50;;;;;;;;;;6091026;23;19995;-92
2022/03/17 11:22:56;;;;;;;5.50;1.63;;;;;;;;;;5977076;24;20016;-94
2022/03/17 11:28:54;;;;;;;4.80;1.52;;;;;;;;;;5897041;24;20061;-92
2022/03/17 11:31:23;;;;;;;4.05;1.52;;;;;;;;;;5872757;24;20041;-92
2022/03/17 11:33:59;;;;;;;4.78;1.40;;;;;;;;;;6075434;23;20006;-91
2022/03/17 11:36:27;;;;;;;3.35;1.52;;;;;;;;;;6112019;23;20005;-92
2022/03/17 11:39:25;;;;;;;6.35;1.42;;;;;;;;;;6186726;23;20087;-91
2022/03/17 11:41:56;;;;;;;2.88;1.25;;;;;;;;;;6187003;23;20453;-93
2022/03/17 11:44:33;;;;;;;2.88;1.30;;;;;;;;;;6186954;23;20005;-90
2022/03/17 11:47:21;;;;;;;6.45;1.58;;;;;;;;;;6186713;23;20009;-93
2022/03/17 11:49:46;;;;;;;5.80;1.73;;;;;;;;;;6212905;23;20028;-91
2022/03/17 11:52:13;;;;;;;7.93;1.55;;;;;;;;;;6187597;23;20035;-91
2022/03/17 11:54:41;;;;;;;4.80;1.40;;;;;;;;;;6187376;23;20008;-93
2022/03/17 11:57:10;;;;;;;3.70;1.40;;;;;;;;;;6187187;23;20457;-90
2022/03/17 12:00:09;;;;;;;7.05;2.05;;;;;;;;;;6186573;23;20531;-91
2022/03/17 12:02:35;;;;;;;6.65;1.95;;;;;;;;;;6063842;23;20003;-92
2022/03/17 12:05:13;;;;;;;5.13;1.60;;;;;;;;;;6059468;23;20466;-90
2022/03/17 12:07:47;;;;;;;5.68;1.63;;;;;;;;;;6187210;23;20337;-91
2022/03/17 12:10:21;;;;;;;7.88;1.80;;;;;;;;;;6187243;23;20008;-91
2022/03/17 12:12:53;;;;;;;3.30;1.60;;;;;;;;;;6186360;23;20027;-90
2022/03/17 12:15:37;;;;;;;9.98;2.00;;;;;;;;;;6186583;23;20008;-91
2022/03/17 12:18:24;;;;;;;4.15;1.50;;;;;;;;;;6186672;23;20174;-92
2022/03/17 12:20:52;;;;;;;5.53;1.40;;;;;;;;;;6186608;23;20340;-91
2022/03/17 12:23:37;;;;;;;6.00;1.60;;;;;;;;;;6186475;23;20005;-91
2022/03/17 12:26:25;;;;;;;3.13;1.23;;;;;;;;;;6186244;23;20384;-91
2022/03/17 12:28:54;;;;;;;4.03;1.50;;;;;;;;;;6211639;23;20036;-91
2022/03/17 12:31:20;;;;;;;2.78;1.23;;;;;;;;;;6186502;23;20015;-91
2022/03/17 12:33:47;;;;;;;2.63;1.27;;;;;;;;;;6186373;23;20009;-91
2022/03/17 12:36:15;;;;;;;5.60;1.95;;;;;;;;;;6187232;23;20009;-90
2022/03/17 12:38:41;;;;;;;6.93;1.75;;;;;;;;;;6187077;23;20001;-90
2022/03/17 12:41:13;;;;;;;5.15;1.55;;;;;;;;;;6186188;23;20020;-91
2022/03/17 12:43:40;;;;;;;8.27;1.40;;;;;;;;;;6186748;23;20447;-92
2022/03/17 12:46:08;;;;;;;4.45;1.40;;;;;;;;;;6186415;23;20345;-90
2022/03/17 12:48:34;;;;;;;5.07;1.58;;;;;;;;;;6186295;23;20011;-90
2022/03/17 12:51:05;;;;;;;8.48;1.58;;;;;;;;;;6186206;23;20005;-91
2022/03/17 12:53:31;;;;;;;4.47;1.40;;;;;;;;;;6186428;23;20013;-90
2022/03/17 12:56:00;;;;;;;4.38;1.67;;;;;;;;;;6186201;23;20012;-92
2022/03/17 12:58:26;;;;;;;6.70;1.70;;;;;;;;;;6186191;23;20008;-89
2022/03/17 13:00:55;;;;;;;4.65;1.73;;;;;;;;;;6186512;23;20457;-92
2022/03/17 13:03:25;;;;;;;4.03;1.50;;;;;;;;;;6186172;23;20011;-91
2022/03/17 13:08:47;;;;;;;5.55;1.55;;;;;;;;;;6106322;23;20010;-92
2022/03/17 13:14:23;;;;;;;5.40;1.67;;;;;;;;;;6212650;23;20019;-89
2022/03/17 13:16:59;;;;;;;9.25;2.58;;;;;;;;;;6186621;23;20429;-90
2022/03/17 13:19:25;;;;;;;3.22;1.40;;;;;;;;;;6186165;23;20009;-90
2022/03/17 13:21:54;;;;;;;7.50;2.15;;;;;;;;;;6186476;23;20004;-92
2022/03/17 13:24:20;;;;;;;5.78;1.75;;;;;;;;;;6186467;23;20004;-91
2022/03/17 13:27:00;;;;;;;6.32;1.73;;;;;;;;;;6186712;23;20009;-91
2022/03/17 13:29:26;;;;;;;6.38;1.90;;;;;;;;;;6185870;23;20410;-90
2022/03/17 13:31:53;;;;;;;7.38;1.80;;;;;;;;;;6186492;23;20008;-92
2022/03/17 13:34:48;;;;;;;7.00;1.92;;;;;;;;;;6186156;23;20009;-92
2022/03/17 13:37:43;;;;;;;7.30;2.25;;;;;;;;;;6168731;23;20448;-93
2022/03/17 13:40:20;;;;;;;7.03;2.13;;;;;;;;;;6185740;23;20013;-91
2022/03/17 13:43:01;;;;;;;4.82;1.60;;;;;;;;;;6186470;23;20092;-93
2022/03/17 13:45:32;;;;;;;9.63;1.65;;;;;;;;;;6185661;23;20004;-91
2022/03/17 13:48:04;;;;;;;9.05;2.20;;;;;;;;;;6185766;23;19996;-90
2022/03/17 13:50:38;;;;;;;9.07;1.88;;;;;;;;;;6185853;23;20511;-92
2022/03/17 13:53:05;;;;;;;4.20;1.65;;;;;;;;;;6185954;23;20001;-92
2022/03/17 13:55:52;;;;;;;4.22;1.45;;;;;;;;;;6186314;23;20008;-93
2022/03/17 13:58:23;;;;;;;7.88;1.98;;;;;;;;;;6186534;23;20043;-92
2022/03/17 14:00:54;;;;;;;5.38;1.80;;;;;;;;;;6185693;23;20418;-91
2022/03/17 14:03:43;;;;;;;7.07;1.85;;;;;;;;;;6186091;23;20425;-90
2022/03/17 14:06:37;;;;;;;4.57;1.50;;;;;;;;;;6171224;23;20004;-92
2022/03/17 14:09:20;;;;;;;6.90;2.13;;;;;;;;;;6185997;23;20457;-94
2022/03/17 14:11:46;;;;;;;8.15;1.83;;;;;;;;;;6186687;23;20008;-90
2022/03/17 14:14:15;;;;;;;6.68;1.85;;;;;;;;;;6186067;23;20004;-93
2022/03/17 14:16:52;;;;;;;6.15;1.77;;;;;;;;;;6212445;23;20001;-94
2022/03/17 14:19:40;;;;;;;5.60;2.00;;;;;;;;;;6187878;23;20012;-88
2022/03/17 14:24:55;;;;;;;6.05;1.73;;;;;;;;;;6214401;23;20012;-92
2022/03/17 14:27:26;;;;;;;4.53;2.30;;;;;;;;;;6187484;23;20016;-92
2022/03/17 14:29:55;;;;;;;5.82;1.90;;;;;;;;;;6187890;23;20012;-92
2022/03/17 14:32:21;;;;;;;9.02;1.95;;;;;;;;;;6187741;23;20005;-90
2022/03/17 14:34:47;;;;;;;7.05;2.33;;;;;;;;;;6188441;23;20492;-91
2022/03/17 14:37:13;;;;;;;4.82;1.73;;;;;;;;;;6187571;23;20492;-92
2022/03/17 14:39:44;;;;;;;10.13;2.25;;;;;;;;;;6187287;23;20032;-91
2022/03/17 14:42:16;;;;;;;8.65;2.03;;;;;;;;;;6187280;23;20314;-92
2022/03/17 14:45:00;;;;;;;3.88;1.92;;;;;;;;;;6187635;23;20008;-91
2022/03/17 14:47:29;;;;;;;6.00;2.20;;;;;;;;;;6187693;23;20012;-91
2022/03/17 14:49:56;;;;;;;11.35;2.25;;;;;;;;;;6187707;23;20058;-90
2022/03/17 14:52:24;;;;;;;4.78;1.60;;;;;;;;;;6187699;23;20054;-92
2022/03/17 14:54:55;;;;;;;;;;;;;;;;;;6188852;23;20035;-93
2022/03/17 14:57:48;;;;;;;9.68;2.78;;;;;;;;;;6187960;23;20358;-91
2022/03/17 15:00:15;;;;;;;6.68;2.20;;;;;;;;;;6172659;23;20019;-92
2022/03/17 15:02:41;;;;;;;5.85;2.40;;;;;;;;;;6187473;23;20000;-91
2022/03/17 15:05:07;;;;;;;3.60;1.63;;;;;;;;;;6186895;23;20028;-92
2022/03/17 15:07:33;;;;;;;6.70;1.75;;;;;;;;;;6187103;23;20005;-93
2022/03/17 15:10:04;;;;;;;3.92;1.98;;;;;;;;;;6187459;23;20009;-91
2022/03/17 15:12:30;;;;;;;3.38;1.58;;;;;;;;;;6187679;23;20096;-90
2022/03/17 15:14:59;;;;;;;7.32;2.42;;;;;;;;;;6187188;23;20414;-91
2022/03/17 15:17:25;;;;;;;9.80;2.30;;;;;;;;;;6186716;23;20005;-90
2022/03/17 15:19:53;;;;;;;7.85;2.35;;;;;;;;;;6188033;23;20051;-91
2022/03/17 15:22:20;;;;;;;7.10;1.95;;;;;;;;;;6187677;23;20342;-91
2022/03/17 15:24:46;;;;;;;6.63;2.03;;;;;;;;;;6187317;23;20008;-91
2022/03/17 15:30:08;;;;;;;11.00;2.25;;;;;;;;;;6213514;23;20039;-91
2022/03/17 15:32:55;;;;;;;8.95;2.05;;;;;;;;;;6186782;23;20028;-92
2022/03/17 15:35:34;;;;;;;6.15;2.33;;;;;;;;;;6187678;23;20082;-93
2022/03/17 15:38:07;;;;;;;10.73;1.90;;;;;;;;;;6186926;23;20072;-93
2022/03/17 15:40:58;;;;;;;7.32;1.70;;;;;;;;;;6186750;23;20445;-92
2022/03/17 15:43:50;;;;;;;6.97;2.00;;;;;;;;;;6187220;23;20005;-92
2022/03/17 15:46:17;;;;;;;3.83;2.00;;;;;;;;;;6170942;23;20009;-92
2022/03/17 15:48:43;;;;;;;9.80;2.08;;;;;;;;;;6187078;23;20013;-91
2022/03/17 15:51:12;;;;;;;5.78;2.25;;;;;;;;;;6186654;23;20028;-92
2022/03/17 15:53:41;;;;;;;9.25;2.42;;;;;;;;;;6187305;23;20338;-91
2022/03/17 15:56:09;;;;;;;14.93;3.17;;;;;;;;;;6186502;23;20000;-90
2022/03/17 15:59:09;;;;;;;;;;;;;;;;;;;;;
2022/03/17 16:01:36;;;;;;;9.73;2.20;;;;;;;;;;6206566;23;20100;-89
2022/03/17 16:04:23;;;;;;;8.40;2.35;;;;;;;;;;6186885;23;20011;-91
2022/03/17 16:06:48;;;;;;;9.07;2.20;;;;;;;;;;6212357;23;20028;-91
2022/03/17 16:09:17;;;;;;;7.28;2.20;;;;;;;;;;6186510;23;20005;-90
2022/03/17 16:14:48;;;;;;;7.05;2.30;;;;;;;;;;6213095;23;20548;-89
2022/03/17 16:17:35;;;;;;;9.52;2.63;;;;;;;;;;6186444;23;20011;-91